Time,TemperatureF,DewpointF,PressureIn,WindDirection,WindDirectionDegrees,WindSpeedMPH,WindSpeedGustMPH,Humidity,HourlyPrecipIn,Conditions,Clouds,dailyrainin,SoftwareType,DateUTC
2013-11-04 00:12:00,49.9,41.0,29.91,ENE,77,1.0,6.0,71,0.00,,,0.00,weatherlink.com 1.10,2013-11-04 08:12:00,
2013-11-04 00:27:00,49.3,41.0,29.91,ENE,60,2.0,4.0,72,0.00,,,0.00,weatherlink.com 1.10,2013-11-04 08:27:00,
2013-11-04 00:42:00,49.0,40.0,29.91,NE,49,2.0,3.0,72,0.00,,,0.00,weatherlink.com 1.10,2013-11-04 08:42:00,
2013-11-04 00:57:00,48.5,40.0,29.91,ENE,69,2.0,3.0,73,0.00,,,0.00,weatherlink.com 1.10,2013-11-04 08:57:00,
2013-11-04 01:12:00,48.7,40.0,29.91,East,79,2.0,4.0,72,0.00,,,0.00,weatherlink.com 1.10,2013-11-04 09:12:00,
2013-11-04 01:27:00,48.4,40.0,29.91,NE,49,2.0,2.0,73,0.00,,,0.00,weatherlink.com 1.10,2013-11-04 09:27:00,
2013-11-04 01:42:00,48.0,40.0,29.91,NE,41,4.0,4.0,74,0.00,,,0.00,weatherlink.com 1.10,2013-11-04 09:42:00,
2013-11-04 01:57:00,47.5,40.0,29.91,NNE,33,3.0,5.0,75,0.00,,,0.00,weatherlink.com 1.10,2013-11-04 09:57:00,
2013-11-04 02:13:00,47.7,40.0,29.91,NE,52,3.0,5.0,75,0.00,,,0.00,weatherlink.com 1.10,2013-11-04 10:13:00,
2013-11-04 02:28:00,47.8,40.0,29.91,NE,53,4.0,6.0,75,0.00,,,0.00,weatherlink.com 1.10,2013-11-04 10:28:00,
2013-11-04 02:43:00,47.4,40.0,29.91,NE,54,4.0,4.0,76,0.00,,,0.00,weatherlink.com 1.10,2013-11-04 10:43:00,
2013-11-04 02:58:00,47.2,40.0,29.92,NE,37,3.0,5.0,76,0.00,,,0.00,weatherlink.com 1.10,2013-11-04 10:58:00,
2013-11-04 03:13:00,47.1,40.0,29.91,NE,50,3.0,6.0,75,0.00,,,0.00,weatherlink.com 1.10,2013-11-04 11:13:00,
2013-11-04 03:28:00,47.3,40.0,29.91,NE,52,2.0,6.0,75,0.00,,,0.00,weatherlink.com 1.10,2013-11-04 11:28:00,
2013-11-04 03:43:00,47.1,39.0,29.91,NE,46,4.0,5.0,74,0.00,,,0.00,weatherlink.com 1.10,2013-11-04 11:43:00,
2013-11-04 03:58:00,46.7,39.0,29.91,NE,53,3.0,4.0,74,0.00,,,0.00,weatherlink.com 1.10,2013-11-04 11:58:00,
2013-11-04 04:13:00,47.0,39.0,29.91,NE,56,5.0,7.0,74,0.00,,,0.00,weatherlink.com 1.10,2013-11-04 12:13:00,
2013-11-04 04:28:00,47.3,39.0,29.91,ENE,59,1.0,5.0,73,0.00,,,0.00,weatherlink.com 1.10,2013-11-04 12:28:00,
2013-11-04 04:43:00,46.7,38.0,29.92,ENE,65,3.0,4.0,73,0.00,,,0.00,weatherlink.com 1.10,2013-11-04 12:43:00,
2013-11-04 04:58:00,46.5,39.0,29.93,ENE,60,5.0,6.0,74,0.00,,,0.00,weatherlink.com 1.10,2013-11-04 12:58:00,
2013-11-04 05:13:00,46.3,38.0,29.93,NE,52,3.0,5.0,74,0.00,,,0.00,weatherlink.com 1.10,2013-11-04 13:13:00,
2013-11-04 05:28:00,46.3,39.0,29.94,NNE,22,2.0,5.0,75,0.00,,,0.00,weatherlink.com 1.10,2013-11-04 13:28:00,
2013-11-04 05:43:00,46.1,39.0,29.95,NE,46,4.0,4.0,75,0.00,,,0.00,weatherlink.com 1.10,2013-11-04 13:43:00,
2013-11-04 05:58:00,46.0,39.0,29.95,NE,50,4.0,5.0,75,0.00,,,0.00,weatherlink.com 1.10,2013-11-04 13:58:00,
2013-11-04 06:13:00,45.7,38.0,29.95,NE,39,2.0,3.0,75,0.00,,,0.00,weatherlink.com 1.10,2013-11-04 14:13:00,
2013-11-04 06:28:00,45.9,39.0,29.95,NNE,32,2.0,4.0,76,0.00,,,0.00,weatherlink.com 1.10,2013-11-04 14:28:00,
2013-11-04 06:43:00,45.6,38.0,29.96,ENE,65,3.0,4.0,75,0.00,,,0.00,weatherlink.com 1.10,2013-11-04 14:43:00,
2013-11-04 06:58:00,46.1,39.0,29.97,NE,40,4.0,5.0,75,0.00,,,0.00,weatherlink.com 1.10,2013-11-04 14:58:00,
2013-11-04 07:13:00,46.1,39.0,29.97,NE,42,4.0,4.0,75,0.00,,,0.00,weatherlink.com 1.10,2013-11-04 15:13:00,
2013-11-04 07:28:00,46.7,39.0,29.98,NE,46,3.0,4.0,74,0.00,,,0.00,weatherlink.com 1.10,2013-11-04 15:28:00,
2013-11-04 07:43:00,47.8,39.0,29.98,NE,54,2.0,5.0,71,0.00,,,0.00,weatherlink.com 1.10,2013-11-04 15:43:00,
2013-11-04 07:58:00,49.2,39.0,29.98,NW,322,2.0,6.0,67,0.00,,,0.00,weatherlink.com 1.10,2013-11-04 15:58:00,
2013-11-04 08:13:00,50.2,39.0,29.98,North,11,2.0,6.0,65,0.00,,,0.00,weatherlink.com 1.10,2013-11-04 16:13:00,
2013-11-04 08:28:00,51.2,39.0,29.99,North,349,2.0,4.0,63,0.00,,,0.00,weatherlink.com 1.10,2013-11-04 16:28:00,
2013-11-04 08:43:00,52.1,39.0,29.99,WNW,302,1.0,3.0,61,0.00,,,0.00,weatherlink.com 1.10,2013-11-04 16:43:00,
2013-11-04 08:59:00,53.0,39.0,30.00,NNW,330,2.0,5.0,59,0.00,,,0.00,weatherlink.com 1.10,2013-11-04 16:59:00,
2013-11-04 09:14:00,53.9,38.0,30.00,NW,309,3.0,7.0,56,0.00,,,0.00,weatherlink.com 1.10,2013-11-04 17:14:00,
2013-11-04 09:29:00,54.7,38.0,30.00,NNW,334,4.0,11.0,54,0.00,,,0.00,weatherlink.com 1.10,2013-11-04 17:29:00,
2013-11-04 09:44:00,55.3,37.0,30.00,NNW,328,3.0,10.0,51,0.00,,,0.00,weatherlink.com 1.10,2013-11-04 17:44:00,
2013-11-04 09:59:00,55.7,38.0,30.00,NW,314,6.0,11.0,52,0.00,,,0.00,weatherlink.com 1.10,2013-11-04 17:59:00,
2013-11-04 10:14:00,57.1,37.0,30.00,NW,316,7.0,7.0,47,0.00,,,0.00,weatherlink.com 1.10,2013-11-04 18:14:00,
2013-11-04 10:29:00,57.7,36.0,29.99,NW,307,4.0,7.0,45,0.00,,,0.00,weatherlink.com 1.10,2013-11-04 18:29:00,
2013-11-04 10:44:00,58.6,35.0,29.99,NW,304,7.0,10.0,42,0.00,,,0.00,weatherlink.com 1.10,2013-11-04 18:44:00,
2013-11-04 10:59:00,59.3,34.0,29.99,WNW,303,2.0,7.0,39,0.00,,,0.00,weatherlink.com 1.10,2013-11-04 18:59:00,
2013-11-04 11:14:00,60.0,34.0,29.99,NNE,26,2.0,8.0,38,0.00,,,0.00,weatherlink.com 1.10,2013-11-04 19:14:00,
2013-11-04 11:29:00,60.7,33.0,29.98,NW,322,4.0,9.0,35,0.00,,,0.00,weatherlink.com 1.10,2013-11-04 19:29:00,
2013-11-04 11:44:00,61.6,32.0,29.98,NW,312,7.0,8.0,33,0.00,,,0.00,weatherlink.com 1.10,2013-11-04 19:44:00,
2013-11-04 11:59:00,61.8,31.0,29.98,NW,319,3.0,9.0,32,0.00,,,0.00,weatherlink.com 1.10,2013-11-04 19:59:00,
2013-11-04 12:15:00,63.0,33.0,29.97,WNW,297,0.0,7.0,32,0.00,,,0.00,weatherlink.com 1.10,2013-11-04 20:15:00,
2013-11-04 12:29:00,64.2,31.0,29.96,NW,308,2.0,8.0,29,0.00,,,0.00,weatherlink.com 1.10,2013-11-04 20:29:00,
2013-11-04 12:44:00,64.9,31.0,29.95,WNW,303,2.0,7.0,28,0.00,,,0.00,weatherlink.com 1.10,2013-11-04 20:44:00,
2013-11-04 12:59:00,65.1,40.0,29.96,SW,228,3.0,8.0,40,0.00,,,0.00,weatherlink.com 1.10,2013-11-04 20:59:00,
2013-11-04 13:14:00,63.6,39.0,29.95,SSW,197,4.0,7.0,41,0.00,,,0.00,weatherlink.com 1.10,2013-11-04 21:14:00,
2013-11-04 13:29:00,64.7,38.0,29.94,WSW,256,6.0,7.0,38,0.00,,,0.00,weatherlink.com 1.10,2013-11-04 21:29:00,
2013-11-04 13:44:00,65.1,38.0,29.94,SE,136,4.0,9.0,37,0.00,,,0.00,weatherlink.com 1.10,2013-11-04 21:44:00,
2013-11-04 13:59:00,66.4,38.0,29.94,SW,228,3.0,10.0,35,0.00,,,0.00,weatherlink.com 1.10,2013-11-04 21:59:00,
2013-11-04 14:14:00,66.5,37.0,29.94,WSW,252,2.0,7.0,34,0.00,,,0.00,weatherlink.com 1.10,2013-11-04 22:14:00,
2013-11-04 14:29:00,67.6,38.0,29.94,SSW,197,1.0,6.0,34,0.00,,,0.00,weatherlink.com 1.10,2013-11-04 22:29:00,
2013-11-04 14:45:00,68.3,36.0,29.94,WSW,249,2.0,4.0,30,0.00,,,0.00,weatherlink.com 1.10,2013-11-04 22:45:00,
2013-11-04 15:00:00,69.7,28.0,29.93,NW,312,7.0,7.0,21,0.00,,,0.00,weatherlink.com 1.10,2013-11-04 23:00:00,
2013-11-04 15:15:00,70.7,28.0,29.94,NW,322,7.0,13.0,20,0.00,,,0.00,weatherlink.com 1.10,2013-11-04 23:15:00,
2013-11-04 15:30:00,70.4,26.0,29.93,NW,321,5.0,12.0,19,0.00,,,0.00,weatherlink.com 1.10,2013-11-04 23:30:00,
2013-11-04 15:45:00,70.0,27.0,29.93,ENE,64,6.0,12.0,20,0.00,,,0.00,weatherlink.com 1.10,2013-11-04 23:45:00,
2013-11-04 16:00:00,70.1,27.0,29.93,West,276,3.0,11.0,20,0.00,,,0.00,weatherlink.com 1.10,2013-11-05 00:00:00,
2013-11-04 16:15:00,69.7,27.0,29.94,NE,55,7.0,11.0,20,0.00,,,0.00,weatherlink.com 1.10,2013-11-05 00:15:00,
2013-11-04 16:30:00,69.3,26.0,29.95,NW,311,5.0,10.0,20,0.00,,,0.00,weatherlink.com 1.10,2013-11-05 00:30:00,
2013-11-04 16:45:00,68.8,26.0,29.95,NE,55,3.0,10.0,20,0.00,,,0.00,weatherlink.com 1.10,2013-11-05 00:45:00,
2013-11-04 17:00:00,67.6,28.0,29.95,NE,44,3.0,11.0,23,0.00,,,0.00,weatherlink.com 1.10,2013-11-05 01:00:00,
2013-11-04 17:15:00,66.4,29.0,29.96,NNE,28,6.0,11.0,25,0.00,,,0.00,weatherlink.com 1.10,2013-11-05 01:15:00,
2013-11-04 17:30:00,66.2,29.0,29.97,NE,39,6.0,16.0,25,0.00,,,0.00,weatherlink.com 1.10,2013-11-05 01:30:00,
2013-11-04 17:45:00,66.0,29.0,29.97,North,351,6.0,14.0,25,0.00,,,0.00,weatherlink.com 1.10,2013-11-05 01:45:00,
2013-11-04 18:00:00,65.4,29.0,29.98,NNW,330,1.0,10.0,26,0.00,,,0.00,weatherlink.com 1.10,2013-11-05 02:00:00,
2013-11-04 18:15:00,63.9,31.0,29.99,NNE,26,8.0,8.0,29,0.00,,,0.00,weatherlink.com 1.10,2013-11-05 02:15:00,
2013-11-04 18:30:00,63.3,31.0,29.99,NNE,31,1.0,5.0,30,0.00,,,0.00,weatherlink.com 1.10,2013-11-05 02:30:00,
2013-11-04 18:45:00,61.7,35.0,29.99,NE,36,3.0,5.0,37,0.00,,,0.00,weatherlink.com 1.10,2013-11-05 02:45:00,
2013-11-04 19:00:00,61.3,33.0,29.99,North,351,2.0,4.0,35,0.00,,,0.00,weatherlink.com 1.10,2013-11-05 03:00:00,
2013-11-04 19:15:00,61.5,32.0,29.99,NE,35,2.0,5.0,33,0.00,,,0.00,weatherlink.com 1.10,2013-11-05 03:15:00,
2013-11-04 19:30:00,61.3,35.0,30.00,NNW,342,5.0,8.0,37,0.00,,,0.00,weatherlink.com 1.10,2013-11-05 03:30:00,
2013-11-04 19:45:00,60.6,35.0,30.00,NNE,30,5.0,13.0,38,0.00,,,0.00,weatherlink.com 1.10,2013-11-05 03:45:00,
2013-11-04 20:00:00,60.5,36.0,30.00,NNE,13,2.0,9.0,41,0.00,,,0.00,weatherlink.com 1.10,2013-11-05 04:00:00,
2013-11-04 20:15:00,59.5,36.0,30.01,NW,305,2.0,4.0,42,0.00,,,0.00,weatherlink.com 1.10,2013-11-05 04:15:00,
2013-11-04 20:30:00,58.3,36.0,30.02,NNE,18,4.0,5.0,44,0.00,,,0.00,weatherlink.com 1.10,2013-11-05 04:30:00,
2013-11-04 21:00:00,57.8,40.0,30.02,North,349,4.0,12.0,51,0.00,,,0.00,weatherlink.com 1.10,2013-11-05 05:00:00,
2013-11-04 21:15:00,57.6,39.0,30.03,North,351,2.0,8.0,51,0.00,,,0.00,weatherlink.com 1.10,2013-11-05 05:15:00,
2013-11-04 21:30:00,57.2,40.0,30.04,NE,44,6.0,7.0,53,0.00,,,0.00,weatherlink.com 1.10,2013-11-05 05:30:00,
2013-11-04 21:45:00,56.5,40.0,30.04,NE,46,4.0,5.0,55,0.00,,,0.00,weatherlink.com 1.10,2013-11-05 05:45:00,
2013-11-04 22:00:00,55.7,40.0,30.04,NE,56,4.0,5.0,56,0.00,,,0.00,weatherlink.com 1.10,2013-11-05 06:00:00,
2013-11-04 22:15:00,55.5,40.0,30.04,NNE,19,1.0,5.0,57,0.00,,,0.00,weatherlink.com 1.10,2013-11-05 06:15:00,
2013-11-04 22:30:00,55.1,40.0,30.04,NNE,13,1.0,6.0,57,0.00,,,0.00,weatherlink.com 1.10,2013-11-05 06:30:00,
2013-11-04 22:45:00,55.1,41.0,30.04,NNE,13,3.0,6.0,59,0.00,,,0.00,weatherlink.com 1.10,2013-11-05 06:45:00,
2013-11-04 23:00:00,54.5,41.0,30.04,NNE,13,2.0,6.0,61,0.00,,,0.00,weatherlink.com 1.10,2013-11-05 07:00:00,
2013-11-04 23:15:00,54.6,40.0,30.05,NE,37,4.0,10.0,59,0.00,,,0.00,weatherlink.com 1.10,2013-11-05 07:15:00,
2013-11-04 23:30:00,54.3,40.0,30.05,NNE,16,3.0,6.0,59,0.00,,,0.00,weatherlink.com 1.10,2013-11-05 07:30:00,
2013-11-04 23:45:00,54.2,41.0,30.05,NE,47,1.0,8.0,62,0.00,,,0.00,weatherlink.com 1.10,2013-11-05 07:45:00,